createdAt,value
2022-11-29T00:01:39.200Z,6.16
2022-11-29T00:04:09.075Z,6.12
2022-11-29T00:06:37.988Z,6.17
2022-11-29T00:09:08.914Z,6.15
2022-11-29T00:11:58.780Z,6.03
2022-11-29T00:14:28.532Z,6.05
2022-11-29T00:16:59.378Z,6.04
2022-11-29T00:19:29.382Z,6.07
2022-11-29T00:21:57.775Z,6.08
2022-11-29T00:24:25.868Z,6.04
2022-11-29T00:26:54.046Z,6.08
2022-11-29T00:29:22.225Z,6.04
2022-11-29T00:31:50.310Z,6.02
2022-11-29T00:34:18.463Z,6.07
2022-11-29T00:36:48.002Z,6.06
2022-11-29T00:39:16.520Z,6.08
2022-11-29T00:41:44.998Z,6.16
2022-11-29T00:44:19.619Z,6.12
2022-11-29T00:46:49.357Z,6.19
2022-11-29T00:49:18.019Z,6.23
2022-11-29T00:51:48.220Z,6.20
2022-11-29T00:54:17.287Z,6.22
2022-11-29T00:56:45.592Z,6.21
2022-11-29T00:59:13.621Z,6.20
2022-11-29T01:01:42.067Z,6.23
2022-11-29T01:04:10.483Z,6.20
2022-11-29T01:06:39.634Z,6.27
2022-11-29T01:09:09.463Z,6.37
2022-11-29T01:11:38.001Z,6.39
2022-11-29T01:14:06.046Z,6.38
2022-11-29T01:16:34.829Z,6.31
2022-11-29T01:19:03.427Z,6.39
2022-11-29T01:21:32.000Z,6.33
2022-11-29T01:24:01.881Z,6.32
2022-11-29T01:26:32.737Z,6.35
2022-11-29T01:29:00.951Z,6.40
2022-11-29T01:31:31.781Z,6.34
2022-11-29T01:34:02.577Z,6.45
2022-11-29T01:36:31.106Z,6.45
2022-11-29T01:39:00.923Z,6.30
2022-11-29T01:41:32.503Z,6.44
2022-11-29T01:44:07.161Z,6.39
2022-11-29T01:46:40.386Z,6.36
2022-11-29T01:49:13.174Z,6.36
2022-11-29T01:51:44.222Z,6.33
2022-11-29T01:54:13.721Z,6.31
2022-11-29T01:56:45.557Z,6.25
2022-11-29T01:59:17.089Z,6.42
2022-11-29T02:01:45.343Z,6.41
2022-11-29T02:04:13.988Z,6.43
2022-11-29T02:06:42.977Z,6.48
2022-11-29T02:09:19.637Z,6.42
2022-11-29T02:12:06.653Z,6.26
2022-11-29T02:14:56.632Z,6.28
2022-11-29T02:17:34.437Z,6.29
2022-11-29T02:20:38.585Z,6.29
2022-11-29T02:23:20.877Z,6.23
2022-11-29T02:26:04.947Z,6.33
2022-11-29T02:29:13.534Z,6.32
2022-11-29T02:32:32.166Z,6.31
2022-11-29T02:35:17.937Z,6.32
2022-11-29T02:38:11.091Z,6.32
2022-11-29T02:41:04.389Z,6.22
2022-11-29T02:43:54.231Z,6.20
2022-11-29T02:46:43.338Z,6.22
2022-11-29T02:49:18.156Z,6.24
2022-11-29T02:51:57.862Z,6.23
2022-11-29T02:54:30.418Z,6.32
2022-11-29T02:57:03.291Z,6.40
2022-11-29T02:59:47.026Z,6.32
2022-11-29T03:02:25.150Z,6.37
2022-11-29T03:05:02.905Z,6.46
2022-11-29T03:07:42.692Z,6.47
2022-11-29T03:10:24.287Z,6.38
2022-11-29T03:12:54.993Z,6.36
2022-11-29T03:15:30.623Z,6.35
2022-11-29T03:18:09.775Z,6.35
2022-11-29T03:20:46.607Z,6.31
2022-11-29T03:23:24.337Z,6.31
2022-11-29T03:25:58.723Z,6.31
2022-11-29T03:28:32.835Z,6.29
2022-11-29T03:31:08.228Z,6.27
2022-11-29T03:33:49.938Z,6.29
2022-11-29T03:36:30.552Z,6.24
2022-11-29T03:39:05.231Z,6.25
2022-11-29T03:41:41.742Z,6.22
2022-11-29T03:44:14.389Z,6.26
2022-11-29T03:46:51.691Z,6.22
2022-11-29T03:49:25.085Z,6.21
2022-11-29T03:52:02.386Z,6.14
2022-11-29T03:54:44.890Z,6.11
2022-11-29T03:57:17.829Z,6.15
2022-11-29T03:59:57.384Z,6.11
2022-11-29T04:02:56.955Z,6.05
2022-11-29T04:05:52.937Z,6.10
2022-11-29T04:08:42.403Z,6.14
2022-11-29T04:11:55.094Z,6.15
2022-11-29T04:14:44.662Z,6.12
2022-11-29T04:17:53.779Z,6.10
2022-11-29T04:20:56.181Z,6.08
2022-11-29T04:23:59.971Z,6.14
2022-11-29T04:27:06.799Z,6.18
2022-11-29T04:29:56.714Z,6.21
2022-11-29T04:32:54.957Z,6.16
2022-11-29T04:35:36.846Z,6.15
2022-11-29T04:38:31.117Z,6.17
2022-11-29T04:41:21.028Z,6.23
2022-11-29T04:44:07.149Z,6.19
2022-11-29T04:46:50.720Z,6.16
2022-11-29T04:49:42.868Z,6.16
2022-11-29T04:52:27.330Z,6.14
2022-11-29T04:55:05.672Z,6.16
2022-11-29T04:57:40.719Z,6.11
2022-11-29T05:00:12.626Z,6.14
2022-11-29T05:02:50.015Z,6.11
2022-11-29T05:05:28.716Z,6.11
2022-11-29T05:08:20.332Z,6.12
2022-11-29T05:10:57.480Z,6.15
2022-11-29T05:13:35.549Z,6.13
2022-11-29T05:16:33.720Z,6.13
2022-11-29T05:19:34.464Z,6.15
2022-11-29T05:22:20.612Z,6.20
2022-11-29T05:24:57.456Z,6.21
2022-11-29T05:27:37.789Z,6.25
2022-11-29T05:30:11.741Z,6.26
2022-11-29T05:32:51.903Z,6.21
2022-11-29T05:35:52.329Z,6.13
2022-11-29T05:38:40.485Z,6.20
2022-11-29T05:41:25.110Z,6.24
2022-11-29T05:44:04.334Z,6.12
2022-11-29T05:46:38.707Z,6.24
2022-11-29T05:49:20.160Z,6.25
2022-11-29T05:51:59.466Z,6.18
2022-11-29T05:54:32.789Z,6.14
2022-11-29T05:57:11.580Z,6.27
2022-11-29T05:59:42.215Z,6.28
2022-11-29T06:02:29.483Z,6.20
2022-11-29T06:05:11.958Z,6.24
2022-11-29T06:07:48.509Z,6.26
2022-11-29T06:10:19.304Z,6.33
2022-11-29T06:12:57.296Z,6.35
2022-11-29T06:15:56.984Z,6.42
2022-11-29T06:18:39.957Z,6.42
2022-11-29T06:21:24.072Z,6.35
2022-11-29T06:24:24.800Z,6.33
2022-11-29T06:27:17.991Z,6.32
2022-11-29T06:29:53.142Z,6.36
2022-11-29T06:32:33.096Z,6.34
2022-11-29T06:35:06.148Z,6.40
2022-11-29T06:37:40.788Z,6.41
2022-11-29T06:40:12.108Z,6.44
2022-11-29T06:42:40.287Z,6.47
2022-11-29T06:45:11.801Z,6.46
2022-11-29T06:47:45.064Z,6.41
2022-11-29T06:50:31.493Z,6.44
2022-11-29T06:53:09.171Z,6.52
2022-11-29T06:55:48.720Z,6.48
2022-11-29T06:58:38.161Z,6.53
2022-11-29T07:01:15.797Z,6.62
2022-11-29T07:03:56.944Z,6.58
2022-11-29T07:06:28.052Z,6.67
2022-11-29T07:09:02.542Z,6.68
2022-11-29T07:11:31.277Z,6.68
2022-11-29T07:13:59.876Z,6.77
2022-11-29T07:16:32.154Z,6.79
2022-11-29T07:19:10.492Z,6.80
2022-11-29T07:21:52.186Z,6.73
2022-11-29T07:24:38.950Z,6.75
2022-11-29T07:27:17.947Z,6.70
2022-11-29T07:29:55.153Z,6.74
2022-11-29T07:32:33.658Z,6.73
2022-11-29T07:35:09.863Z,6.66
2022-11-29T07:37:45.633Z,6.74
2022-11-29T07:40:19.638Z,6.65
2022-11-29T07:43:01.402Z,6.63
2022-11-29T07:45:32.027Z,6.71
2022-11-29T07:48:01.072Z,6.83
2022-11-29T07:50:31.057Z,6.92
2022-11-29T07:53:00.160Z,6.86
2022-11-29T07:55:30.302Z,6.84
2022-11-29T07:57:58.984Z,6.84
2022-11-29T08:00:27.222Z,6.82
2022-11-29T08:02:55.405Z,6.79
2022-11-29T08:05:24.231Z,6.82
2022-11-29T08:07:53.724Z,6.82
2022-11-29T08:10:21.844Z,6.85
2022-11-29T08:12:52.854Z,6.91
2022-11-29T08:15:22.269Z,6.89
2022-11-29T08:17:51.130Z,7.00
2022-11-29T08:20:19.492Z,7.09
2022-11-29T08:22:55.378Z,7.08
2022-11-29T08:25:24.269Z,7.20
2022-11-29T08:27:54.647Z,7.17
2022-11-29T08:30:23.889Z,7.11
2022-11-29T08:32:53.474Z,7.10
2022-11-29T08:35:24.192Z,7.11
2022-11-29T08:37:52.617Z,7.18
2022-11-29T08:40:20.923Z,7.21
2022-11-29T08:42:49.204Z,7.19
2022-11-29T08:45:18.709Z,7.17
2022-11-29T08:47:47.050Z,7.16
2022-11-29T08:50:17.345Z,7.23
2022-11-29T08:53:05.474Z,7.24
2022-11-29T08:55:36.994Z,7.23
2022-11-29T08:58:07.451Z,7.22
2022-11-29T09:00:37.427Z,7.21
2022-11-29T09:03:24.288Z,7.23
2022-11-29T09:05:52.770Z,7.21
2022-11-29T09:08:21.407Z,7.22
2022-11-29T09:10:49.860Z,7.24
2022-11-29T09:13:18.768Z,7.26
2022-11-29T09:15:48.637Z,7.20
2022-11-29T09:18:16.969Z,7.11
2022-11-29T09:20:45.550Z,7.26
2022-11-29T09:23:14.240Z,7.30
2022-11-29T09:25:42.404Z,7.24
2022-11-29T09:28:12.699Z,7.30
2022-11-29T09:30:40.790Z,7.31
2022-11-29T09:33:11.386Z,7.28
2022-11-29T09:35:39.539Z,7.32
2022-11-29T09:38:07.710Z,7.33
2022-11-29T09:40:48.130Z,7.30
2022-11-29T09:43:28.858Z,7.30
2022-11-29T09:46:04.393Z,7.30
2022-11-29T09:48:55.276Z,7.24
2022-11-29T09:51:29.594Z,7.31
2022-11-29T09:54:10.505Z,7.34
2022-11-29T09:56:43.457Z,7.39
2022-11-29T09:59:15.797Z,7.45
2022-11-29T10:01:49.709Z,7.48
2022-11-29T10:04:22.611Z,7.43
2022-11-29T10:06:58.993Z,7.46
2022-11-29T10:09:34.064Z,7.49
2022-11-29T10:12:11.501Z,7.51
2022-11-29T10:14:47.225Z,7.49
2022-11-29T10:17:28.215Z,7.61
2022-11-29T10:20:02.378Z,7.63
2022-11-29T10:22:41.117Z,7.62
2022-11-29T10:25:16.967Z,7.65
2022-11-29T10:27:45.303Z,7.69
2022-11-29T10:30:16.491Z,7.58
2022-11-29T10:32:48.033Z,7.54
2022-11-29T10:35:21.272Z,7.55
2022-11-29T10:38:14.517Z,7.48
2022-11-29T10:40:43.172Z,7.51
2022-11-29T10:43:11.725Z,7.48
2022-11-29T10:45:45.991Z,7.37
2022-11-29T10:48:17.573Z,7.47
2022-11-29T10:50:50.168Z,7.49
2022-11-29T10:53:21.517Z,7.50
2022-11-29T10:55:53.345Z,7.52
2022-11-29T10:58:28.370Z,7.50
2022-11-29T11:00:58.684Z,7.54
2022-11-29T11:03:37.072Z,7.49
2022-11-29T11:06:13.354Z,7.42
2022-11-29T11:08:44.970Z,7.33
2022-11-29T11:11:14.418Z,7.38
2022-11-29T11:13:44.016Z,7.38
2022-11-29T11:16:20.149Z,7.35
2022-11-29T11:18:49.465Z,7.37
2022-11-29T11:21:22.322Z,7.47
2022-11-29T11:23:56.257Z,7.47
2022-11-29T11:26:26.355Z,7.53
2022-11-29T11:28:57.916Z,7.53
2022-11-29T11:31:35.673Z,7.44
2022-11-29T11:34:27.608Z,7.46
2022-11-29T11:37:19.413Z,7.55
2022-11-29T11:39:49.882Z,7.60
2022-11-29T11:42:41.607Z,7.52
2022-11-29T11:45:33.080Z,7.47
2022-11-29T11:48:04.572Z,7.42
2022-11-29T11:50:35.190Z,7.49
2022-11-29T11:53:08.042Z,7.43
2022-11-29T11:55:40.425Z,7.37
2022-11-29T11:58:18.564Z,7.35
2022-11-29T12:01:06.196Z,7.45
2022-11-29T12:03:42.625Z,7.45
2022-11-29T12:06:36.896Z,7.34
2022-11-29T12:09:16.732Z,7.47
2022-11-29T12:11:51.648Z,7.56
2022-11-29T12:14:27.171Z,7.57
2022-11-29T12:17:04.493Z,7.56
2022-11-29T12:19:42.469Z,7.51
2022-11-29T12:22:17.888Z,7.51
2022-11-29T12:24:55.365Z,7.58
2022-11-29T12:27:23.819Z,7.56
2022-11-29T12:29:52.247Z,7.58
2022-11-29T12:32:37.877Z,7.60
2022-11-29T12:35:40.812Z,7.70
2022-11-29T12:38:19.796Z,7.62
2022-11-29T12:40:58.724Z,7.77
2022-11-29T12:43:40.380Z,7.67
2022-11-29T12:46:14.405Z,7.65
2022-11-29T12:48:51.732Z,7.54
2022-11-29T12:51:28.912Z,7.55
2022-11-29T12:54:15.364Z,7.55
2022-11-29T12:56:52.807Z,7.49
2022-11-29T12:59:33.401Z,7.52
2022-11-29T13:02:19.070Z,7.53
2022-11-29T13:04:59.749Z,7.47
2022-11-29T13:07:35.568Z,7.43
2022-11-29T13:10:21.065Z,7.42
2022-11-29T13:12:54.607Z,7.50
2022-11-29T13:15:26.113Z,7.54
2022-11-29T13:18:00.938Z,7.54
2022-11-29T13:20:40.093Z,7.54
2022-11-29T13:23:20.776Z,7.45
2022-11-29T13:25:54.724Z,7.57
2022-11-29T13:28:27.359Z,7.54
2022-11-29T13:31:03.221Z,7.57
2022-11-29T13:33:35.876Z,7.39
2022-11-29T13:36:14.260Z,7.55
2022-11-29T13:38:51.958Z,7.55
2022-11-29T13:41:30.671Z,7.45
2022-11-29T13:44:09.666Z,7.48
2022-11-29T13:46:47.109Z,7.47
2022-11-29T13:49:23.254Z,7.59
2022-11-29T13:52:05.882Z,7.56
2022-11-29T13:54:34.810Z,7.60
2022-11-29T13:57:05.572Z,7.60
2022-11-29T13:59:44.145Z,7.64
2022-11-29T14:02:29.855Z,7.49
2022-11-29T14:04:58.521Z,7.48
2022-11-29T14:07:26.856Z,7.30
2022-11-29T14:10:01.708Z,7.46
2022-11-29T14:12:39.615Z,7.42
2022-11-29T14:15:23.008Z,7.28
2022-11-29T14:17:54.346Z,7.21
2022-11-29T14:20:46.787Z,7.28
2022-11-29T14:23:17.979Z,7.26
2022-11-29T14:26:23.727Z,7.30
2022-11-29T14:28:54.788Z,7.40
2022-11-29T14:31:50.627Z,7.39
2022-11-29T14:34:51.640Z,7.43
2022-11-29T14:37:44.178Z,7.28
2022-11-29T14:40:35.231Z,7.17
2022-11-29T14:43:06.573Z,7.14
2022-11-29T14:45:35.872Z,7.13
2022-11-29T14:48:05.682Z,7.06
2022-11-29T14:50:36.774Z,7.05
2022-11-29T14:53:05.972Z,7.04
2022-11-29T14:55:36.844Z,7.00
2022-11-29T14:58:18.951Z,6.89
2022-11-29T15:01:10.895Z,6.88
2022-11-29T15:03:50.026Z,6.88
2022-11-29T15:06:29.105Z,6.95
2022-11-29T15:09:05.735Z,6.93
2022-11-29T15:11:51.689Z,6.84
2022-11-29T15:14:26.367Z,6.94
2022-11-29T15:17:05.825Z,6.86
2022-11-29T15:20:04.494Z,6.74
2022-11-29T15:22:46.894Z,6.83
2022-11-29T15:25:20.277Z,6.85
2022-11-29T15:27:56.131Z,6.79
2022-11-29T15:30:33.883Z,6.79
2022-11-29T15:33:04.524Z,6.87
2022-11-29T15:35:36.050Z,6.79
2022-11-29T15:38:04.662Z,6.93
2022-11-29T15:40:35.730Z,6.87
2022-11-29T15:43:16.107Z,6.85
2022-11-29T15:45:49.059Z,6.86
2022-11-29T15:48:22.742Z,6.87
2022-11-29T15:51:06.436Z,6.80
2022-11-29T15:53:38.723Z,6.92
2022-11-29T15:56:14.760Z,6.93
2022-11-29T15:58:44.761Z,6.96
2022-11-29T16:01:20.162Z,6.80
2022-11-29T16:03:50.291Z,6.87
2022-11-29T16:06:29.955Z,6.88
2022-11-29T16:08:58.248Z,6.92
2022-11-29T16:11:32.367Z,6.99
2022-11-29T16:14:06.130Z,7.00
2022-11-29T16:16:35.854Z,7.06
2022-11-29T16:19:12.511Z,6.97
2022-11-29T16:21:45.258Z,6.93
2022-11-29T16:24:15.716Z,6.89
2022-11-29T16:26:46.942Z,6.99
2022-11-29T16:29:24.732Z,6.91
2022-11-29T16:31:53.526Z,6.94
2022-11-29T16:34:28.828Z,6.86
2022-11-29T16:37:03.342Z,6.92
2022-11-29T16:39:32.307Z,6.95
2022-11-29T16:42:09.107Z,6.95
2022-11-29T16:45:03.321Z,6.95
2022-11-29T16:47:33.044Z,7.01
2022-11-29T16:50:23.224Z,6.88
2022-11-29T16:52:56.619Z,6.95
2022-11-29T16:55:25.769Z,6.98
2022-11-29T16:57:54.330Z,7.02
2022-11-29T17:00:34.977Z,7.08
2022-11-29T17:03:03.365Z,7.08
2022-11-29T17:05:31.754Z,6.92
2022-11-29T17:08:02.113Z,6.85
2022-11-29T17:10:31.315Z,6.95
2022-11-29T17:12:59.643Z,6.87
2022-11-29T17:15:27.911Z,6.98
2022-11-29T17:17:56.175Z,7.07
2022-11-29T17:20:24.396Z,7.03
2022-11-29T17:22:52.830Z,7.06
2022-11-29T17:25:22.644Z,7.04
2022-11-29T17:27:50.905Z,7.04
2022-11-29T17:30:19.543Z,6.93
2022-11-29T17:32:48.137Z,6.95
2022-11-29T17:35:16.627Z,7.07
2022-11-29T17:37:44.952Z,7.05
2022-11-29T17:40:15.384Z,7.02
2022-11-29T17:42:45.044Z,7.03
2022-11-29T17:45:13.337Z,7.05
2022-11-29T17:47:41.522Z,7.09
2022-11-29T17:50:10.572Z,7.10
2022-11-29T17:52:39.904Z,7.09
2022-11-29T17:55:09.546Z,7.08
2022-11-29T17:57:39.748Z,6.93
2022-11-29T18:00:13.672Z,7.07
2022-11-29T18:02:41.813Z,7.17
2022-11-29T18:05:10.576Z,7.17
2022-11-29T18:07:58.227Z,7.16
2022-11-29T18:10:27.159Z,7.10
2022-11-29T18:12:55.942Z,7.06
2022-11-29T18:15:25.596Z,7.06
2022-11-29T18:17:53.905Z,7.10
2022-11-29T18:20:22.253Z,7.13
2022-11-29T18:22:50.478Z,7.21
2022-11-29T18:25:38.201Z,7.26
2022-11-29T18:28:11.503Z,7.14
2022-11-29T18:30:41.028Z,7.17
2022-11-29T18:33:09.241Z,7.21
2022-11-29T18:35:37.409Z,7.22
2022-11-29T18:38:20.937Z,7.15
2022-11-29T18:40:49.345Z,7.15
2022-11-29T18:43:17.917Z,7.09
2022-11-29T18:45:47.587Z,7.15
2022-11-29T18:48:16.247Z,7.13
2022-11-29T18:50:44.487Z,7.18
2022-11-29T18:53:13.887Z,7.21
2022-11-29T18:55:42.756Z,7.26
2022-11-29T18:58:11.006Z,7.34
2022-11-29T19:00:39.376Z,7.25
2022-11-29T19:03:09.132Z,7.20
2022-11-29T19:05:37.555Z,7.19
2022-11-29T19:08:06.108Z,7.21
2022-11-29T19:10:34.508Z,7.16
2022-11-29T19:13:02.779Z,7.21
2022-11-29T19:15:30.810Z,7.21
2022-11-29T19:17:59.189Z,7.15
2022-11-29T19:20:28.730Z,7.13
2022-11-29T19:23:00.505Z,7.12
2022-11-29T19:25:29.169Z,7.11
2022-11-29T19:27:57.301Z,7.07
2022-11-29T19:30:25.465Z,7.09
2022-11-29T19:32:53.835Z,7.05
2022-11-29T19:35:22.356Z,7.10
2022-11-29T19:37:51.882Z,7.09
2022-11-29T19:40:20.357Z,7.13
2022-11-29T19:42:49.002Z,7.13
2022-11-29T19:45:18.195Z,7.11
2022-11-29T19:47:46.941Z,7.12
2022-11-29T19:50:15.092Z,7.16
2022-11-29T19:52:43.128Z,7.18
2022-11-29T19:55:12.848Z,7.12
2022-11-29T19:57:41.569Z,7.18
2022-11-29T20:00:10.883Z,7.17
2022-11-29T20:02:39.517Z,6.88
2022-11-29T20:05:08.910Z,7.00
2022-11-29T20:07:37.031Z,7.00
2022-11-29T20:10:07.765Z,6.86
2022-11-29T20:12:37.265Z,7.01
2022-11-29T20:15:06.748Z,7.09
2022-11-29T20:17:35.177Z,7.06
2022-11-29T20:20:03.441Z,7.04
2022-11-29T20:22:31.833Z,7.04
2022-11-29T20:25:00.393Z,7.10
2022-11-29T20:27:28.461Z,7.00
2022-11-29T20:29:58.070Z,6.94
2022-11-29T20:32:27.135Z,7.03
2022-11-29T20:34:56.443Z,7.09
2022-11-29T20:37:49.632Z,7.03
2022-11-29T20:40:24.098Z,6.98
2022-11-29T20:43:04.761Z,6.91
2022-11-29T20:45:35.132Z,6.94
2022-11-29T20:48:11.442Z,6.89
2022-11-29T20:50:41.346Z,7.02
2022-11-29T20:53:28.230Z,6.87
2022-11-29T20:55:56.497Z,6.93
2022-11-29T20:58:26.557Z,6.93
2022-11-29T21:00:56.784Z,6.92
2022-11-29T21:03:25.958Z,6.86
2022-11-29T21:05:55.836Z,6.82
2022-11-29T21:08:27.349Z,6.90
2022-11-29T21:10:56.246Z,6.85
2022-11-29T21:13:24.903Z,6.88
2022-11-29T21:15:53.809Z,6.79
2022-11-29T21:18:26.527Z,6.74
2022-11-29T21:21:05.943Z,6.76
2022-11-29T21:23:44.603Z,6.74
2022-11-29T21:26:17.883Z,6.71
2022-11-29T21:28:54.417Z,6.68
2022-11-29T21:31:23.231Z,6.72
2022-11-29T21:33:53.596Z,6.73
2022-11-29T21:36:22.626Z,6.67
2022-11-29T21:38:55.070Z,6.68
2022-11-29T21:41:23.731Z,6.73
2022-11-29T21:44:06.088Z,6.80
2022-11-29T21:46:35.735Z,6.75
2022-11-29T21:49:05.730Z,6.77
2022-11-29T21:51:33.882Z,6.82
2022-11-29T21:54:02.955Z,6.82
2022-11-29T21:56:31.341Z,6.83
2022-11-29T21:58:59.458Z,6.81
2022-11-29T22:01:28.396Z,6.71
2022-11-29T22:03:56.935Z,6.73
2022-11-29T22:06:27.937Z,6.67
2022-11-29T22:08:56.272Z,6.71
2022-11-29T22:11:31.997Z,6.68
2022-11-29T22:14:18.595Z,6.66
2022-11-29T22:16:48.934Z,6.58
2022-11-29T22:19:18.796Z,6.56
2022-11-29T22:21:49.861Z,6.51
2022-11-29T22:24:19.843Z,6.51
2022-11-29T22:26:48.757Z,6.56
2022-11-29T22:29:17.795Z,6.53
2022-11-29T22:31:47.781Z,6.56
2022-11-29T22:34:16.195Z,6.56
2022-11-29T22:36:44.793Z,6.45
2022-11-29T22:39:14.414Z,6.53
2022-11-29T22:41:43.234Z,6.56
2022-11-29T22:44:11.757Z,6.61
2022-11-29T22:46:41.334Z,6.60
2022-11-29T22:49:09.822Z,6.48
2022-11-29T22:51:39.616Z,6.53
2022-11-29T22:54:09.468Z,6.52
2022-11-29T22:56:41.413Z,6.48
2022-11-29T22:59:09.711Z,6.52
2022-11-29T23:01:39.642Z,6.49
2022-11-29T23:04:09.408Z,6.47
2022-11-29T23:06:39.600Z,6.45
2022-11-29T23:09:12.154Z,6.45
2022-11-29T23:11:41.810Z,6.44
2022-11-29T23:14:10.536Z,6.48
2022-11-29T23:16:38.965Z,6.40
2022-11-29T23:19:07.213Z,6.37
2022-11-29T23:21:37.639Z,6.37
2022-11-29T23:24:06.688Z,6.35
2022-11-29T23:26:38.989Z,6.32
2022-11-29T23:29:10.528Z,6.31
2022-11-29T23:31:38.909Z,6.30
2022-11-29T23:34:07.230Z,6.29
2022-11-29T23:36:35.858Z,6.35
2022-11-29T23:39:03.996Z,6.29
2022-11-29T23:41:32.026Z,6.20
2022-11-29T23:44:00.931Z,6.22
2022-11-29T23:46:30.450Z,6.17
2022-11-29T23:48:58.633Z,6.21
2022-11-29T23:51:27.001Z,6.24
2022-11-29T23:53:55.998Z,6.17
2022-11-29T23:56:24.764Z,6.19
2022-11-29T23:58:53.167Z,6.17
